createdAt,value
2018-04-23T00:01:38.568Z,21.80
2018-04-23T00:04:06.187Z,21.80
2018-04-23T00:06:35.282Z,21.80
2018-04-23T00:09:04.401Z,21.80
2018-04-23T00:11:32.755Z,21.80
2018-04-23T00:14:01.885Z,21.70
2018-04-23T00:16:30.245Z,21.70
2018-04-23T00:18:58.630Z,21.70
2018-04-23T00:21:27.006Z,21.70
2018-04-23T00:23:54.622Z,21.60
2018-04-23T00:26:22.235Z,21.70
2018-04-23T00:28:50.622Z,21.60
2018-04-23T00:31:18.210Z,21.50
2018-04-23T00:33:45.818Z,21.60
2018-04-23T00:36:14.920Z,21.40
2018-04-23T00:38:43.307Z,21.50
2018-04-23T00:41:11.662Z,21.50
2018-04-23T00:43:39.288Z,21.40
2018-04-23T00:46:06.878Z,21.50
2018-04-23T00:48:34.478Z,21.40
2018-04-23T00:51:02.858Z,21.30
2018-04-23T00:53:38.983Z,21.30
2018-04-23T00:56:06.602Z,21.30
2018-04-23T00:58:34.279Z,21.30
2018-04-23T01:01:01.926Z,21.20
2018-04-23T01:03:29.514Z,21.20
2018-04-23T01:05:57.134Z,21.20
2018-04-23T01:08:24.729Z,21.20
2018-04-23T01:10:52.341Z,21.10
2018-04-23T01:13:20.693Z,21.10
2018-04-23T01:15:48.321Z,21.00
2018-04-23T01:18:16.711Z,21.00
2018-04-23T01:20:44.322Z,21.00
2018-04-23T01:23:12.672Z,21.00
2018-04-23T01:25:40.290Z,20.90
2018-04-23T01:28:07.885Z,20.90
2018-04-23T01:30:35.502Z,20.90
2018-04-23T01:33:03.090Z,20.90
2018-04-23T01:35:30.712Z,20.90
2018-04-23T01:37:58.298Z,20.80
2018-04-23T01:40:25.926Z,20.80
2018-04-23T01:42:54.282Z,20.70
2018-04-23T01:45:21.878Z,20.70
2018-04-23T01:47:49.499Z,20.70
2018-04-23T01:50:17.087Z,20.70
2018-04-23T01:52:45.477Z,20.60
2018-04-23T01:55:13.070Z,20.50
2018-04-23T01:57:40.663Z,20.60
2018-04-23T02:00:08.274Z,20.50
2018-04-23T02:02:35.864Z,20.50
2018-04-23T02:05:03.479Z,20.50
2018-04-23T02:07:31.074Z,20.40
2018-04-23T02:09:58.760Z,20.40
2018-04-23T02:12:26.342Z,20.40
2018-04-23T02:14:54.734Z,20.30
2018-04-23T02:17:22.354Z,20.30
2018-04-23T02:19:49.938Z,20.30
2018-04-23T02:22:18.323Z,20.20
2018-04-23T02:24:46.677Z,20.20
2018-04-23T02:27:15.777Z,20.10
2018-04-23T02:29:44.162Z,20.20
2018-04-23T02:32:11.782Z,20.10
2018-04-23T02:34:39.437Z,20.20
2018-04-23T02:37:07.031Z,20.10
2018-04-23T02:39:34.667Z,20.10
2018-04-23T02:42:02.280Z,20.10
2018-04-23T02:44:30.631Z,20.00
2018-04-23T02:46:58.242Z,20.00
2018-04-23T02:49:25.830Z,20.00
2018-04-23T02:51:53.446Z,20.00
2018-04-23T02:54:21.798Z,20.00
2018-04-23T02:56:49.414Z,19.90
2018-04-23T02:59:16.999Z,20.00
2018-04-23T03:01:44.592Z,20.00
2018-04-23T03:04:12.211Z,19.90
2018-04-23T03:06:40.047Z,19.90
2018-04-23T03:09:07.965Z,19.90
2018-04-23T03:11:35.829Z,19.90
2018-04-23T03:14:03.694Z,19.90
2018-04-23T03:16:31.572Z,19.90
2018-04-23T03:18:59.700Z,19.90
2018-04-23T03:21:27.550Z,19.80
2018-04-23T03:23:55.182Z,19.80
2018-04-23T03:26:23.562Z,19.80
2018-04-23T03:28:51.162Z,19.80
2018-04-23T03:31:18.774Z,19.80
2018-04-23T03:33:47.147Z,19.80
2018-04-23T03:36:14.759Z,19.70
2018-04-23T03:38:42.357Z,19.80
2018-04-23T03:41:09.978Z,19.70
2018-04-23T03:43:37.566Z,19.70
2018-04-23T03:46:05.158Z,19.70
2018-04-23T03:48:32.774Z,19.80
2018-04-23T03:51:00.396Z,19.80
2018-04-23T03:53:28.779Z,19.70
2018-04-23T03:55:57.139Z,19.70
2018-04-23T03:58:24.767Z,19.70
2018-04-23T04:00:52.358Z,19.70
2018-04-23T04:03:19.980Z,19.70
2018-04-23T04:05:47.586Z,19.70
2018-04-23T04:08:15.971Z,19.70
2018-04-23T04:10:44.335Z,19.70
2018-04-23T04:13:23.946Z,19.60
2018-04-23T04:16:03.544Z,19.70
2018-04-23T04:18:43.848Z,19.70
2018-04-23T04:21:11.441Z,19.60
2018-04-23T04:23:39.040Z,19.70
2018-04-23T04:26:06.668Z,19.70
2018-04-23T04:28:34.262Z,19.70
2018-04-23T04:31:02.795Z,19.70
2018-04-23T04:33:30.394Z,19.70
2018-04-23T04:35:58.747Z,19.70
2018-04-23T04:38:27.130Z,19.70
2018-04-23T04:40:55.490Z,19.70
2018-04-23T04:43:23.113Z,19.60
2018-04-23T04:45:50.706Z,19.70
2018-04-23T04:48:18.297Z,19.70
2018-04-23T04:50:46.684Z,19.70
2018-04-23T04:53:15.044Z,19.70
2018-04-23T04:55:43.430Z,19.70
2018-04-23T04:58:11.797Z,19.70
2018-04-23T05:00:39.386Z,19.60
2018-04-23T05:03:07.780Z,19.70
2018-04-23T05:05:35.384Z,19.60
2018-04-23T05:08:03.009Z,19.70
2018-04-23T05:10:30.598Z,19.70
2018-04-23T05:12:58.282Z,19.70
2018-04-23T05:15:25.893Z,19.70
2018-04-23T05:17:53.485Z,19.60
2018-04-23T05:20:21.115Z,19.60
2018-04-23T05:22:48.694Z,19.60
2018-04-23T05:25:16.305Z,19.60
2018-04-23T05:27:44.658Z,19.60
2018-04-23T05:30:12.290Z,19.60
2018-04-23T05:32:39.899Z,19.60
2018-04-23T05:35:08.299Z,19.60
2018-04-23T05:37:35.904Z,19.50
2018-04-23T05:40:03.542Z,19.60
2018-04-23T05:42:31.193Z,19.60
2018-04-23T05:44:58.837Z,19.60
2018-04-23T05:47:27.198Z,19.60
2018-04-23T05:49:55.599Z,19.50
2018-04-23T05:52:23.200Z,19.50
2018-04-23T05:54:50.829Z,19.50
2018-04-23T05:57:18.426Z,19.50
2018-04-23T05:59:46.055Z,19.50
2018-04-23T06:02:13.654Z,19.50
2018-04-23T06:04:41.278Z,19.50
2018-04-23T06:07:08.988Z,19.60
2018-04-23T06:09:36.607Z,19.60
2018-04-23T06:12:04.206Z,19.60
2018-04-23T06:14:31.822Z,19.70
2018-04-23T06:16:59.510Z,19.70
2018-04-23T06:19:27.107Z,19.80
2018-04-23T06:21:54.768Z,19.80
2018-04-23T06:24:22.350Z,19.80
2018-04-23T06:26:50.738Z,19.90
2018-04-23T06:29:18.564Z,19.80
2018-04-23T06:31:46.191Z,19.90
2018-04-23T06:34:13.794Z,20.00
2018-04-23T06:36:42.200Z,20.00
2018-04-23T06:39:10.566Z,20.10
2018-04-23T06:41:38.957Z,20.10
2018-04-23T06:44:07.318Z,20.10
2018-04-23T06:46:36.333Z,20.20
2018-04-23T06:49:03.933Z,20.10
2018-04-23T06:51:31.559Z,20.20
2018-04-23T06:53:59.161Z,20.20
2018-04-23T06:56:26.854Z,20.20
2018-04-23T06:58:54.446Z,20.20
2018-04-23T07:01:22.062Z,20.30
2018-04-23T07:03:49.670Z,20.30
2018-04-23T07:06:17.293Z,20.30
2018-04-23T07:08:44.882Z,20.30
2018-04-23T07:11:12.478Z,20.30
2018-04-23T07:13:40.098Z,20.40
2018-04-23T07:16:08.454Z,20.50
2018-04-23T07:18:36.890Z,20.40
2018-04-23T07:21:04.492Z,20.50
2018-04-23T07:23:32.324Z,20.50
2018-04-23T07:25:59.939Z,20.50
2018-04-23T07:28:27.568Z,20.60
2018-04-23T07:30:55.155Z,20.60
2018-04-23T07:33:23.510Z,20.70
2018-04-23T07:35:51.904Z,20.70
2018-04-23T07:38:19.507Z,20.70
2018-04-23T07:40:47.207Z,20.80
2018-04-23T07:43:15.067Z,20.80
2018-04-23T07:45:42.687Z,20.80
2018-04-23T07:48:10.496Z,20.80
2018-04-23T07:50:38.264Z,20.80
2018-04-23T07:53:06.029Z,20.80
2018-04-23T07:55:33.707Z,20.80
2018-04-23T07:58:01.400Z,20.90
2018-04-23T08:00:29.114Z,20.90
2018-04-23T08:02:56.874Z,20.90
2018-04-23T08:05:24.742Z,21.00
2018-04-23T08:07:52.494Z,21.00
2018-04-23T08:10:20.194Z,21.10
2018-04-23T08:12:47.920Z,21.10
2018-04-23T08:15:15.699Z,21.10
2018-04-23T08:17:43.436Z,21.10
2018-04-23T08:20:11.233Z,21.10
2018-04-23T08:22:39.010Z,21.20
2018-04-23T08:25:06.632Z,21.20
2018-04-23T08:27:34.505Z,21.30
2018-04-23T08:30:03.870Z,21.30
2018-04-23T08:32:33.458Z,21.40
2018-04-23T08:35:02.895Z,21.40
2018-04-23T08:37:33.166Z,21.40
2018-04-23T08:40:03.521Z,21.40
2018-04-23T08:42:34.025Z,21.50
2018-04-23T08:45:04.125Z,21.50
2018-04-23T08:47:34.449Z,21.60
2018-04-23T08:50:04.675Z,21.60
2018-04-23T08:52:34.882Z,21.70
2018-04-23T08:55:03.616Z,21.70
2018-04-23T08:57:33.506Z,21.80
2018-04-23T09:00:02.219Z,21.90
2018-04-23T09:02:33.029Z,22.00
2018-04-23T09:05:00.831Z,21.90
2018-04-23T09:07:29.243Z,21.90
2018-04-23T09:09:57.030Z,21.90
2018-04-23T09:12:24.805Z,21.90
2018-04-23T09:14:52.449Z,21.90
2018-04-23T09:17:21.011Z,21.90
2018-04-23T09:19:51.140Z,22.00
2018-04-23T09:22:21.294Z,22.00
2018-04-23T09:24:51.616Z,22.10
2018-04-23T09:27:19.383Z,22.00
2018-04-23T09:29:47.006Z,22.10
2018-04-23T09:32:14.597Z,22.20
2018-04-23T09:34:43.771Z,22.30
2018-04-23T09:37:11.447Z,22.30
2018-04-23T09:39:39.075Z,22.40
2018-04-23T09:42:06.756Z,22.50
2018-04-23T09:44:34.393Z,22.50
2018-04-23T09:47:02.004Z,22.50
2018-04-23T09:49:29.716Z,22.60
2018-04-23T09:51:57.349Z,22.70
2018-04-23T09:54:25.712Z,22.80
2018-04-23T09:56:53.467Z,22.80
2018-04-23T09:59:21.100Z,22.90
2018-04-23T10:01:50.678Z,22.90
2018-04-23T10:04:21.103Z,22.90
2018-04-23T10:06:48.706Z,22.90
2018-04-23T10:09:16.302Z,23.00
2018-04-23T10:11:43.935Z,23.00
2018-04-23T10:14:11.551Z,23.10
2018-04-23T10:16:39.249Z,23.10
2018-04-23T10:19:06.857Z,23.20
2018-04-23T10:21:35.217Z,23.40
2018-04-23T10:24:02.961Z,23.30
2018-04-23T10:26:30.567Z,23.50
2018-04-23T10:28:58.957Z,23.60
2018-04-23T10:31:26.598Z,23.60
2018-04-23T10:33:54.182Z,23.60
2018-04-23T10:36:21.830Z,23.60
2018-04-23T10:38:50.271Z,23.60
2018-04-23T10:41:18.122Z,23.60
2018-04-23T10:43:45.733Z,23.60
2018-04-23T10:46:14.094Z,23.70
2018-04-23T10:48:41.722Z,23.60
2018-04-23T10:51:09.348Z,23.70
2018-04-23T10:53:36.974Z,23.80
2018-04-23T10:56:04.569Z,23.90
2018-04-23T10:58:32.163Z,24.00
2018-04-23T11:00:59.799Z,24.10
2018-04-23T11:03:27.385Z,24.10
2018-04-23T11:05:55.021Z,24.20
2018-04-23T11:08:22.631Z,24.30
2018-04-23T11:10:50.227Z,24.20
2018-04-23T11:13:18.612Z,24.20
2018-04-23T11:15:46.260Z,24.20
2018-04-23T11:18:13.875Z,24.20
2018-04-23T11:20:42.326Z,24.20
2018-04-23T11:23:09.922Z,24.20
2018-04-23T11:25:37.546Z,24.20
2018-04-23T11:28:05.146Z,24.10
2018-04-23T11:30:32.762Z,24.10
2018-04-23T11:33:00.349Z,24.10
2018-04-23T11:35:27.956Z,24.10
2018-04-23T11:37:55.726Z,24.10
2018-04-23T11:40:24.086Z,24.20
2018-04-23T11:42:51.714Z,24.10
2018-04-23T11:45:19.315Z,24.20
2018-04-23T11:47:46.907Z,24.30
2018-04-23T11:50:14.522Z,24.20
2018-04-23T11:52:42.122Z,24.20
2018-04-23T11:55:10.506Z,24.20
2018-04-23T11:57:38.096Z,24.10
2018-04-23T12:00:05.700Z,24.10
2018-04-23T12:02:33.390Z,24.10
2018-04-23T12:05:00.956Z,24.10
2018-04-23T12:07:28.579Z,24.10
2018-04-23T12:09:56.173Z,24.10
2018-04-23T12:12:23.774Z,24.10
2018-04-23T12:14:51.392Z,24.30
2018-04-23T12:17:18.986Z,24.30
2018-04-23T12:19:46.613Z,24.40
2018-04-23T12:22:14.206Z,24.40
2018-04-23T12:24:41.794Z,24.40
2018-04-23T12:27:09.421Z,24.40
2018-04-23T12:29:37.010Z,24.40
2018-04-23T12:32:04.634Z,24.40
2018-04-23T12:34:32.249Z,24.40
2018-04-23T12:36:59.854Z,24.40
2018-04-23T12:39:27.502Z,24.40
2018-04-23T12:41:55.092Z,24.40
2018-04-23T12:44:22.713Z,24.40
2018-04-23T12:46:51.063Z,24.40
2018-04-23T12:49:18.688Z,24.40
2018-04-23T12:51:46.290Z,24.40
2018-04-23T12:54:13.939Z,24.40
2018-04-23T12:56:41.522Z,24.40
2018-04-23T12:59:09.144Z,24.40
2018-04-23T13:01:36.730Z,24.40
2018-04-23T13:04:04.371Z,24.40
2018-04-23T13:06:31.960Z,24.40
2018-04-23T13:08:59.554Z,24.40
2018-04-23T13:11:27.174Z,24.40
2018-04-23T13:13:55.548Z,24.40
2018-04-23T13:16:23.173Z,24.30
2018-04-23T13:18:50.763Z,24.40
2018-04-23T13:21:18.345Z,24.40
2018-04-23T13:23:46.762Z,24.20
2018-04-23T13:26:14.351Z,24.20
2018-04-23T13:28:41.976Z,24.20
2018-04-23T13:31:09.570Z,24.10
2018-04-23T13:33:37.158Z,24.10
2018-04-23T13:36:04.777Z,24.10
2018-04-23T13:38:32.371Z,24.10
2018-04-23T13:41:00.761Z,24.20
2018-04-23T13:43:28.785Z,24.20
2018-04-23T13:45:56.458Z,24.30
2018-04-23T13:48:24.077Z,24.40
2018-04-23T13:50:52.440Z,24.50
2018-04-23T13:53:20.165Z,24.40
2018-04-23T13:55:47.761Z,24.50
2018-04-23T13:58:16.862Z,24.50
2018-04-23T14:00:45.298Z,24.50
2018-04-23T14:03:12.890Z,24.50
2018-04-23T14:05:40.635Z,24.60
2018-04-23T14:08:08.226Z,24.50
2018-04-23T14:10:36.586Z,24.60
2018-04-23T14:13:04.212Z,24.60
2018-04-23T14:15:31.883Z,24.70
2018-04-23T14:17:59.522Z,24.70
2018-04-23T14:20:27.208Z,24.70
2018-04-23T14:22:54.789Z,24.70
2018-04-23T14:25:22.402Z,24.70
2018-04-23T14:27:49.986Z,24.70
2018-04-23T14:30:17.611Z,24.70
2018-04-23T14:32:45.966Z,24.60
2018-04-23T14:35:13.595Z,24.60
2018-04-23T14:37:41.250Z,24.60
2018-04-23T14:40:08.839Z,24.50
2018-04-23T14:42:37.966Z,24.30
2018-04-23T14:45:06.328Z,24.20
2018-04-23T14:47:34.691Z,24.20
2018-04-23T14:50:03.100Z,24.10
2018-04-23T14:52:31.458Z,24.00
2018-04-23T14:54:59.902Z,24.00
2018-04-23T14:57:27.496Z,23.90
2018-04-23T14:59:55.093Z,24.00
2018-04-23T15:02:22.707Z,23.90
2018-04-23T15:04:50.294Z,23.90
2018-04-23T15:07:18.723Z,23.90
2018-04-23T15:09:46.319Z,23.80
2018-04-23T15:12:13.956Z,23.90
2018-04-23T15:14:41.575Z,23.90
2018-04-23T15:17:09.163Z,23.90
2018-04-23T15:19:36.782Z,23.90
2018-04-23T15:22:05.137Z,23.90
2018-04-23T15:24:32.725Z,23.90
2018-04-23T15:27:01.105Z,24.00
2018-04-23T15:29:28.702Z,23.90
2018-04-23T15:31:56.340Z,24.00
2018-04-23T15:34:23.923Z,24.00
2018-04-23T15:36:51.514Z,24.10
2018-04-23T15:39:19.899Z,24.10
2018-04-23T15:41:47.493Z,24.00
2018-04-23T15:44:15.110Z,24.10
2018-04-23T15:46:43.527Z,24.00
2018-04-23T15:49:11.929Z,24.00
2018-04-23T15:51:39.539Z,24.00
2018-04-23T15:54:07.174Z,24.00
2018-04-23T15:56:34.842Z,24.00
2018-04-23T15:59:02.459Z,24.00
2018-04-23T16:01:30.090Z,23.90
2018-04-23T16:03:57.678Z,23.90
2018-04-23T16:06:25.310Z,23.80
2018-04-23T16:08:52.904Z,23.80
2018-04-23T16:11:20.527Z,23.80
2018-04-23T16:13:48.154Z,23.70
2018-04-23T16:16:15.826Z,23.70
2018-04-23T16:18:43.418Z,23.60
2018-04-23T16:21:11.038Z,23.60
2018-04-23T16:23:38.642Z,23.50
2018-04-23T16:26:06.263Z,23.50
2018-04-23T16:28:33.854Z,23.50
2018-04-23T16:31:01.494Z,23.40
2018-04-23T16:33:29.143Z,23.40
2018-04-23T16:35:56.738Z,23.40
2018-04-23T16:38:24.380Z,23.30
2018-04-23T16:40:51.976Z,23.30
2018-04-23T16:43:20.417Z,23.20
2018-04-23T16:45:47.998Z,23.20
2018-04-23T16:48:15.734Z,23.20
2018-04-23T16:50:43.329Z,23.20
2018-04-23T16:53:10.955Z,23.10
2018-04-23T16:55:39.861Z,23.10
2018-04-23T16:58:07.474Z,23.10
2018-04-23T17:00:35.098Z,23.00
2018-04-23T17:03:02.728Z,23.00
2018-04-23T17:05:30.330Z,23.00
2018-04-23T17:07:58.784Z,22.90
2018-04-23T17:10:26.355Z,22.80
2018-04-23T17:12:53.945Z,22.80
2018-04-23T17:15:22.323Z,22.70
2018-04-23T17:17:50.691Z,22.70
2018-04-23T17:20:19.110Z,22.60
2018-04-23T17:22:46.710Z,22.60
2018-04-23T17:25:15.885Z,22.50
2018-04-23T17:27:43.470Z,22.50
2018-04-23T17:30:12.602Z,22.40
2018-04-23T17:32:40.959Z,22.40
2018-04-23T17:35:08.786Z,22.30
2018-04-23T17:37:36.375Z,22.30
2018-04-23T17:40:03.997Z,22.30
2018-04-23T17:42:31.590Z,22.20
2018-04-23T17:44:59.229Z,22.20
2018-04-23T17:47:26.846Z,22.20
2018-04-23T17:49:55.375Z,22.00
2018-04-23T17:52:22.986Z,21.90
2018-04-23T17:54:51.347Z,21.70
2018-04-23T17:57:18.986Z,21.70
2018-04-23T17:59:46.579Z,21.60
2018-04-23T18:02:14.998Z,21.40
2018-04-23T18:04:42.626Z,21.30
2018-04-23T18:07:10.986Z,21.20
2018-04-23T18:09:38.603Z,21.10
2018-04-23T18:12:06.218Z,21.10
2018-04-23T18:14:34.614Z,20.90
2018-04-23T18:17:02.982Z,20.90
2018-04-23T18:19:32.373Z,20.80
2018-04-23T18:22:00.874Z,20.60
2018-04-23T18:24:29.299Z,20.50
2018-04-23T18:26:56.910Z,20.50
2018-04-23T18:29:25.279Z,20.40
2018-04-23T18:31:53.666Z,20.30
2018-04-23T18:34:22.034Z,20.20
2018-04-23T18:36:50.598Z,20.20
2018-04-23T18:39:18.461Z,20.10
2018-04-23T18:41:46.056Z,20.10
2018-04-23T18:44:14.700Z,19.90
2018-04-23T18:46:42.283Z,19.90
2018-04-23T18:49:10.185Z,19.90
2018-04-23T18:51:38.916Z,19.70
2018-04-23T18:54:08.687Z,19.70
2018-04-23T18:56:36.412Z,19.70
2018-04-23T18:59:04.803Z,19.50
2018-04-23T19:01:33.167Z,19.40
2018-04-23T19:04:00.786Z,19.40
2018-04-23T19:06:28.606Z,19.40
2018-04-23T19:08:56.236Z,19.40
2018-04-23T19:11:23.828Z,19.30
2018-04-23T19:13:52.229Z,19.20
2018-04-23T19:16:20.619Z,19.20
2018-04-23T19:18:48.230Z,19.10
2018-04-23T19:21:15.852Z,19.10
2018-04-23T19:23:43.452Z,19.10
2018-04-23T19:26:11.110Z,19.00
2018-04-23T19:28:38.700Z,19.00
2018-04-23T19:31:07.096Z,18.90
2018-04-23T19:33:34.687Z,18.90
2018-04-23T19:36:02.298Z,18.90
2018-04-23T19:38:30.650Z,18.80
2018-04-23T19:40:58.279Z,18.80
2018-04-23T19:43:25.870Z,18.70
2018-04-23T19:45:53.454Z,18.70
2018-04-23T19:48:21.848Z,18.60
2018-04-23T19:50:49.654Z,18.50
2018-04-23T19:53:17.295Z,18.50
2018-04-23T19:55:44.886Z,18.50
2018-04-23T19:58:12.499Z,18.40
2018-04-23T20:00:40.847Z,18.30
2018-04-23T20:03:08.477Z,18.30
2018-04-23T20:05:36.095Z,18.30
2018-04-23T20:08:04.478Z,18.20
2018-04-23T20:10:32.965Z,18.20
2018-04-23T20:13:00.590Z,18.20
2018-04-23T20:15:28.189Z,18.20
2018-04-23T20:17:55.782Z,18.20
2018-04-23T20:20:24.163Z,18.20
2018-04-23T20:22:51.754Z,18.10
2018-04-23T20:25:19.380Z,18.20
2018-04-23T20:27:46.974Z,18.20
2018-04-23T20:30:14.565Z,18.20
2018-04-23T20:32:42.183Z,18.10
2018-04-23T20:35:09.809Z,18.10
2018-04-23T20:37:37.440Z,18.10
2018-04-23T20:40:05.075Z,18.10
2018-04-23T20:42:32.657Z,18.00
2018-04-23T20:45:01.039Z,18.00
2018-04-23T20:47:29.394Z,18.00
2018-04-23T20:49:57.027Z,17.90
2018-04-23T20:52:24.660Z,18.00
2018-04-23T20:54:52.404Z,18.00
2018-04-23T20:57:20.957Z,17.90
2018-04-23T20:59:49.328Z,17.90
2018-04-23T21:02:16.953Z,17.80
2018-04-23T21:04:44.631Z,17.80
2018-04-23T21:07:12.214Z,17.80
2018-04-23T21:09:39.838Z,17.80
2018-04-23T21:12:07.438Z,17.80
2018-04-23T21:14:35.055Z,17.80
2018-04-23T21:17:02.648Z,17.80
2018-04-23T21:19:30.234Z,17.80
2018-04-23T21:21:57.859Z,17.80
2018-04-23T21:24:25.480Z,17.80
2018-04-23T21:26:53.132Z,17.80
2018-04-23T21:29:21.482Z,17.70
2018-04-23T21:31:49.139Z,17.70
2018-04-23T21:34:16.759Z,17.70
2018-04-23T21:36:45.686Z,17.60
2018-04-23T21:39:13.348Z,17.60
2018-04-23T21:41:40.938Z,17.60
2018-04-23T21:44:08.582Z,17.60
2018-04-23T21:46:36.171Z,17.70
2018-04-23T21:49:04.526Z,17.70
2018-04-23T21:51:32.163Z,17.70
2018-04-23T21:53:59.809Z,17.70
2018-04-23T21:56:27.438Z,17.70
2018-04-23T21:58:55.800Z,17.60
2018-04-23T22:01:24.337Z,17.60
2018-04-23T22:03:51.971Z,17.60
2018-04-23T22:06:19.567Z,17.60
2018-04-23T22:08:47.186Z,17.60
2018-04-23T22:11:15.539Z,17.50
2018-04-23T22:13:43.130Z,17.50
2018-04-23T22:16:10.824Z,17.50
2018-04-23T22:18:38.410Z,17.50
2018-04-23T22:21:06.358Z,17.40
2018-04-23T22:23:33.956Z,17.40
2018-04-23T22:26:01.546Z,17.40
2018-04-23T22:28:29.185Z,17.40
2018-04-23T22:30:57.578Z,17.30
2018-04-23T22:33:25.199Z,17.20
2018-04-23T22:35:52.787Z,17.30
2018-04-23T22:38:21.206Z,17.10
2018-04-23T22:40:48.821Z,17.10
2018-04-23T22:43:17.182Z,17.00
2018-04-23T22:45:44.794Z,17.00
2018-04-23T22:48:12.381Z,17.00
2018-04-23T22:50:40.015Z,17.00
2018-04-23T22:53:07.606Z,17.00
2018-04-23T22:55:35.579Z,16.90
2018-04-23T22:58:03.222Z,16.90
2018-04-23T23:00:30.936Z,16.90
2018-04-23T23:02:58.550Z,16.80
2018-04-23T23:05:26.146Z,16.80
2018-04-23T23:07:53.768Z,16.80
2018-04-23T23:10:21.384Z,16.80
2018-04-23T23:12:49.789Z,16.60
2018-04-23T23:15:17.410Z,16.50
2018-04-23T23:17:45.221Z,16.50
2018-04-23T23:20:12.825Z,16.40
2018-04-23T23:22:40.442Z,16.40
2018-04-23T23:25:08.030Z,16.40
2018-04-23T23:27:37.102Z,16.40
2018-04-23T23:30:04.699Z,16.40
2018-04-23T23:32:32.299Z,16.40
2018-04-23T23:35:00.682Z,16.40
2018-04-23T23:37:28.379Z,16.30
2018-04-23T23:39:56.006Z,16.40
2018-04-23T23:42:23.595Z,16.40
2018-04-23T23:44:51.181Z,16.30
2018-04-23T23:47:18.800Z,16.30
2018-04-23T23:49:46.400Z,16.30
2018-04-23T23:52:14.024Z,16.20
2018-04-23T23:54:41.628Z,16.20
2018-04-23T23:57:09.254Z,16.20
2018-04-23T23:59:36.892Z,16.10
